METAR AND TAF INFORMATION
METAR FOR LEZG
ADDS - METARS form results

(1916 UTC 26 April 2018)
Data provider http://aviationweather.gov/adds/metars/
 
METAR text: LEZG 261900Z 28007KT CAVOK 19/09 Q1014
Conditions at: LEZG (ZARAGOZA (MIL/CI, ES) observed 1900 UTC 26 April 2018
Temperature: 19.0°C (66°F)
Dewpoint: 9.0°C (48°F) [RH = 52%]
Pressure (altimeter): 29.94 inches Hg (1014.0 mb)
Winds: from the W (280 degrees) at 8 MPH (7 knots; 3.6 m/s)
Visibility: 6 or more miles (10+ km)
Ceiling: ceiling and visibility are OK
Clouds: unknown
Weather: no significant weather observed at this time

METAR text: LEZG 261830Z 30008KT CAVOK 19/09 Q1014
Conditions at: LEZG (ZARAGOZA (MIL/CI, ES) observed 1830 UTC 26 April 2018
Temperature: 19.0°C (66°F)
Dewpoint: 9.0°C (48°F) [RH = 52%]
Pressure (altimeter): 29.94 inches Hg (1014.0 mb)
Winds: from the WNW (300 degrees) at 9 MPH (8 knots; 4.2 m/s)
Visibility: 6 or more miles (10+ km)
Ceiling: ceiling and visibility are OK
Clouds: unknown
Weather: no significant weather observed at this time

Forecast for: LEZG (ZARAGOZA (MIL/CI, ES)
Text: TAF LEZG 261700Z 2618/2718 VRB04KT CAVOK TX24/2713Z TN10/2706Z
Forecast period: 1800 UTC 26 April 2018 to 0900 UTC 27 April 2018
Forecast type: FROM: standard forecast or significant change
Winds: variable direction winds at 5 MPH (4 knots; 2.1 m/s)
Visibility: 6 or more miles (10+ km)
Clouds: not forecast
Weather: no significant weather forecast for this period
Forecast for: LEZG (ZARAGOZA (MIL/CI, ES)
Text: TAF LEZG 261700Z 2618/2718 VRB04KT CAVOK TX24/2713Z TN10/2706Z
Forecast period: 1800 UTC 26 April 2018 to 0900 UTC 27 April 2018
Forecast type: FROM: standard forecast or significant change
Winds: variable direction winds at 5 MPH (4 knots; 2.1 m/s)
Visibility: 6 or more miles (10+ km)
Clouds: not forecast
Weather: no significant weather forecast for this period
Forecast for: LEZG (ZARAGOZA (MIL/CI, ES)
Text: TAF LEZG 261700Z 2618/2718 VRB04KT CAVOK TX24/2713Z TN10/2706Z
Forecast period: 1800 to 2000 UTC 26 April 2018
Forecast type: TEMPORARY: The following changes expected for less than half the time period
Winds: from the NW (310 degrees) at 16 MPH (14 knots; 7.3 m/s)
Weather: no significant weather forecast for this period
Forecast for: LEZG (ZARAGOZA (MIL/CI, ES)
Text: TAF LEZG 261700Z 2618/2718 VRB04KT CAVOK TX24/2713Z TN10/2706Z
Forecast period: 1800 to 2000 UTC 26 April 2018
Forecast type: TEMPORARY: The following changes expected for less than half the time period
Winds: from the NW (310 degrees) at 16 MPH (14 knots; 7.3 m/s)
Weather: no significant weather forecast for this period
Forecast for: LEZG (ZARAGOZA (MIL/CI, ES)
Text: TAF LEZG 261700Z 2618/2718 VRB04KT CAVOK TX24/2713Z TN10/2706Z
Forecast period: 2000 UTC 26 April 2018 to 0000 UTC 27 April 2018
Forecast type: TEMPORARY: The following changes expected for less than half the time period
Winds: from the W (260 degrees) at 8 MPH (7 knots; 3.6 m/s)
Weather: no significant weather forecast for this period
Forecast for: LEZG (ZARAGOZA (MIL/CI, ES)
Text: TAF LEZG 261700Z 2618/2718 VRB04KT CAVOK TX24/2713Z TN10/2706Z
Forecast period: 2000 UTC 26 April 2018 to 0000 UTC 27 April 2018
Forecast type: TEMPORARY: The following changes expected for less than half the time period
Winds: from the W (260 degrees) at 8 MPH (7 knots; 3.6 m/s)
Weather: no significant weather forecast for this period
Forecast for: LEZG (ZARAGOZA (MIL/CI, ES)
Text: TAF LEZG 261700Z 2618/2718 VRB04KT CAVOK TX24/2713Z TN10/2706Z
Forecast period: 0900 to 1800 UTC 27 April 2018
Forecast type: BECOMING: Conditions expected to become as follows by 1100 UTC 27 April 2018
Winds: from the NW (310 degrees) at 9 MPH (8 knots; 4.2 m/s)
Visibility: 6 or more miles (10+ km)
Weather: no significant weather forecast for this period
Forecast for: LEZG (ZARAGOZA (MIL/CI, ES)
Text: TAF LEZG 261700Z 2618/2718 VRB04KT CAVOK TX24/2713Z TN10/2706Z
Forecast period: 0900 to 1800 UTC 27 April 2018
Forecast type: BECOMING: Conditions expected to become as follows by 1100 UTC 27 April 2018
Winds: from the NW (310 degrees) at 9 MPH (8 knots; 4.2 m/s)
Visibility: 6 or more miles (10+ km)
Weather: no significant weather forecast for this period
Forecast for: LEZG (ZARAGOZA (MIL/CI, ES)
Text: TAF LEZG 261700Z 2618/2718 VRB04KT CAVOK TX24/2713Z TN10/2706Z
Forecast period: 1200 to 1800 UTC 27 April 2018
Forecast type: TEMPORARY: The following changes expected for less than half the time period
Clouds: few clouds at 4000 feet AGL
Weather: SHRA  (rain showers)
Forecast for: LEZG (ZARAGOZA (MIL/CI, ES)
Text: TAF LEZG 261700Z 2618/2718 VRB04KT CAVOK TX24/2713Z TN10/2706Z
Forecast period: 1200 to 1800 UTC 27 April 2018
Forecast type: TEMPORARY: The following changes expected for less than half the time period
Clouds: few clouds at 4000 feet AGL
Weather: SHRA  (rain showers)

 AIRPORT MAP

 RUNWAY INFORMATION
Runway 12L Runway length 9843 ft Runway width 148 ft
Runway elevation 823 ft Runway displaced threshold 0 ft Runway heading 120
Runway 30R Runway length 9843 ft Runway width 148 ft
Runway elevation 834 ft Runway displaced threshold 0 ft Runway heading 300
Runway 12R Runway length 12198 ft Runway width 148 ft
Runway elevation 834 ft Runway displaced threshold 0 ft Runway heading 120
Runway 30L Runway length 12198 ft Runway width 148 ft
Runway elevation 863 ft Runway displaced threshold 0 ft Runway heading 300

 AIRPORT FREQUENCIES
Type APP Name APP Frequency 119.3 MHZ
Type GND Name GND Frequency 118.1 MHZ
Type TWR Name TWR Frequency 118.1 MHZ

 AIRPORT NEAR NAVIGATION AIDS
Type VOR-DME Name Zaragoza Frequency 113000 KHZ
Type NDB Name Zaragoza Frequency 389 KHZ
Type TACAN Name Zaragoza Frequency 133700 KHZ
Type NDB Name Zaragoza Frequency 348 KHZ



v2.6.1